sensor_id;sensor_type;location;lat;lon;timestamp;P1;durP1;ratioP1;P2;durP2;ratioP2
27983;SDS011;15317;50.360;8.726;2023-08-31T00:04:32;6.33;;;5.80;;
27983;SDS011;15317;50.360;8.726;2023-08-31T00:09:36;6.73;;;6.13;;
27983;SDS011;15317;50.360;8.726;2023-08-31T00:14:41;8.97;;;7.07;;
27983;SDS011;15317;50.360;8.726;2023-08-31T00:19:45;6.90;;;6.30;;
27983;SDS011;15317;50.360;8.726;2023-08-31T00:24:48;7.10;;;6.50;;
27983;SDS011;15317;50.360;8.726;2023-08-31T00:29:53;7.63;;;6.97;;
27983;SDS011;15317;50.360;8.726;2023-08-31T00:34:58;7.80;;;7.00;;
27983;SDS011;15317;50.360;8.726;2023-08-31T00:40:02;8.67;;;7.03;;
27983;SDS011;15317;50.360;8.726;2023-08-31T00:45:06;7.77;;;7.10;;
27983;SDS011;15317;50.360;8.726;2023-08-31T00:50:13;8.07;;;7.37;;
27983;SDS011;15317;50.360;8.726;2023-08-31T00:55:17;7.30;;;6.70;;
27983;SDS011;15317;50.360;8.726;2023-08-31T01:00:20;8.83;;;8.03;;
27983;SDS011;15317;50.360;8.726;2023-08-31T01:05:28;10.10;;;7.93;;
27983;SDS011;15317;50.360;8.726;2023-08-31T01:10:38;8.57;;;7.80;;
27983;SDS011;15317;50.360;8.726;2023-08-31T01:15:53;8.70;;;7.87;;
27983;SDS011;15317;50.360;8.726;2023-08-31T01:21:02;7.63;;;6.93;;
27983;SDS011;15317;50.360;8.726;2023-08-31T01:26:13;7.90;;;7.30;;
27983;SDS011;15317;50.360;8.726;2023-08-31T01:31:16;8.83;;;7.90;;
27983;SDS011;15317;50.360;8.726;2023-08-31T01:36:22;9.60;;;8.63;;
27983;SDS011;15317;50.360;8.726;2023-08-31T01:41:30;9.27;;;8.30;;
27983;SDS011;15317;50.360;8.726;2023-08-31T01:46:37;9.93;;;8.97;;
27983;SDS011;15317;50.360;8.726;2023-08-31T01:51:41;9.30;;;8.60;;
27983;SDS011;15317;50.360;8.726;2023-08-31T01:56:46;12.43;;;9.07;;
27983;SDS011;15317;50.360;8.726;2023-08-31T02:01:49;10.40;;;8.77;;
27983;SDS011;15317;50.360;8.726;2023-08-31T02:06:53;10.63;;;8.43;;
27983;SDS011;15317;50.360;8.726;2023-08-31T02:11:57;9.07;;;8.17;;
27983;SDS011;15317;50.360;8.726;2023-08-31T02:17:01;8.00;;;7.20;;
27983;SDS011;15317;50.360;8.726;2023-08-31T02:22:04;8.40;;;7.57;;
27983;SDS011;15317;50.360;8.726;2023-08-31T02:27:08;8.97;;;8.17;;
27983;SDS011;15317;50.360;8.726;2023-08-31T02:32:12;8.87;;;7.70;;
27983;SDS011;15317;50.360;8.726;2023-08-31T02:37:15;8.37;;;7.40;;
27983;SDS011;15317;50.360;8.726;2023-08-31T02:42:19;10.30;;;8.13;;
27983;SDS011;15317;50.360;8.726;2023-08-31T02:47:23;8.47;;;7.60;;
27983;SDS011;15317;50.360;8.726;2023-08-31T02:52:26;8.10;;;7.27;;
27983;SDS011;15317;50.360;8.726;2023-08-31T02:57:31;9.53;;;8.63;;
27983;SDS011;15317;50.360;8.726;2023-08-31T03:02:35;10.63;;;9.63;;
27983;SDS011;15317;50.360;8.726;2023-08-31T03:07:38;9.37;;;8.33;;
27983;SDS011;15317;50.360;8.726;2023-08-31T03:12:43;8.90;;;8.00;;
27983;SDS011;15317;50.360;8.726;2023-08-31T03:17:46;9.80;;;8.90;;
27983;SDS011;15317;50.360;8.726;2023-08-31T03:22:50;10.07;;;9.07;;
27983;SDS011;15317;50.360;8.726;2023-08-31T03:27:54;9.93;;;9.13;;
27983;SDS011;15317;50.360;8.726;2023-08-31T03:32:58;9.10;;;8.17;;
27983;SDS011;15317;50.360;8.726;2023-08-31T03:38:01;10.63;;;8.70;;
27983;SDS011;15317;50.360;8.726;2023-08-31T03:43:06;9.70;;;8.73;;
27983;SDS011;15317;50.360;8.726;2023-08-31T03:48:09;8.90;;;8.10;;
27983;SDS011;15317;50.360;8.726;2023-08-31T03:53:12;8.60;;;7.80;;
27983;SDS011;15317;50.360;8.726;2023-08-31T03:58:17;8.77;;;8.07;;
27983;SDS011;15317;50.360;8.726;2023-08-31T04:03:20;7.53;;;6.83;;
27983;SDS011;15317;50.360;8.726;2023-08-31T04:08:24;8.20;;;7.50;;
27983;SDS011;15317;50.360;8.726;2023-08-31T04:13:29;9.43;;;8.63;;
27983;SDS011;15317;50.360;8.726;2023-08-31T04:18:32;9.07;;;8.17;;
27983;SDS011;15317;50.360;8.726;2023-08-31T04:23:35;10.30;;;9.27;;
27983;SDS011;15317;50.360;8.726;2023-08-31T04:28:40;9.60;;;8.80;;
27983;SDS011;15317;50.360;8.726;2023-08-31T04:33:44;9.53;;;8.63;;
27983;SDS011;15317;50.360;8.726;2023-08-31T04:38:48;9.13;;;8.23;;
27983;SDS011;15317;50.360;8.726;2023-08-31T04:43:53;9.77;;;8.07;;
27983;SDS011;15317;50.360;8.726;2023-08-31T04:48:56;9.13;;;8.23;;
27983;SDS011;15317;50.360;8.726;2023-08-31T04:54:00;10.20;;;9.17;;
27983;SDS011;15317;50.360;8.726;2023-08-31T04:59:06;9.30;;;8.60;;
27983;SDS011;15317;50.360;8.726;2023-08-31T05:04:09;10.03;;;9.17;;
27983;SDS011;15317;50.360;8.726;2023-08-31T05:09:12;8.30;;;7.50;;
27983;SDS011;15317;50.360;8.726;2023-08-31T05:14:17;9.73;;;8.90;;
27983;SDS011;15317;50.360;8.726;2023-08-31T05:19:20;11.83;;;10.70;;
27983;SDS011;15317;50.360;8.726;2023-08-31T05:24:26;10.70;;;9.80;;
27983;SDS011;15317;50.360;8.726;2023-08-31T05:29:30;10.50;;;9.63;;
27983;SDS011;15317;50.360;8.726;2023-08-31T05:34:34;10.80;;;9.57;;
27983;SDS011;15317;50.360;8.726;2023-08-31T05:39:40;10.93;;;10.07;;
27983;SDS011;15317;50.360;8.726;2023-08-31T05:44:45;10.07;;;9.27;;
27983;SDS011;15317;50.360;8.726;2023-08-31T05:49:49;13.07;;;11.83;;
27983;SDS011;15317;50.360;8.726;2023-08-31T05:54:53;11.60;;;10.60;;
27983;SDS011;15317;50.360;8.726;2023-08-31T05:59:58;10.60;;;9.67;;
27983;SDS011;15317;50.360;8.726;2023-08-31T06:05:01;9.43;;;8.37;;
27983;SDS011;15317;50.360;8.726;2023-08-31T06:10:06;8.80;;;7.57;;
27983;SDS011;15317;50.360;8.726;2023-08-31T06:15:11;7.47;;;6.77;;
27983;SDS011;15317;50.360;8.726;2023-08-31T06:20:14;6.73;;;6.00;;
27983;SDS011;15317;50.360;8.726;2023-08-31T06:25:18;7.17;;;5.43;;
27983;SDS011;15317;50.360;8.726;2023-08-31T06:30:23;5.57;;;5.07;;
27983;SDS011;15317;50.360;8.726;2023-08-31T06:35:26;7.33;;;5.37;;
27983;SDS011;15317;50.360;8.726;2023-08-31T06:40:29;5.27;;;4.73;;
27983;SDS011;15317;50.360;8.726;2023-08-31T06:45:34;5.00;;;4.33;;
27983;SDS011;15317;50.360;8.726;2023-08-31T06:50:37;5.57;;;4.50;;
27983;SDS011;15317;50.360;8.726;2023-08-31T06:55:41;5.60;;;3.30;;
27983;SDS011;15317;50.360;8.726;2023-08-31T07:00:45;4.77;;;3.53;;
27983;SDS011;15317;50.360;8.726;2023-08-31T07:05:49;5.50;;;2.80;;
27983;SDS011;15317;50.360;8.726;2023-08-31T07:10:52;4.50;;;3.40;;
27983;SDS011;15317;50.360;8.726;2023-08-31T07:15:57;3.93;;;2.60;;
27983;SDS011;15317;50.360;8.726;2023-08-31T07:21:00;3.63;;;2.70;;
27983;SDS011;15317;50.360;8.726;2023-08-31T07:26:03;3.47;;;2.47;;
27983;SDS011;15317;50.360;8.726;2023-08-31T07:31:08;3.57;;;2.20;;
27983;SDS011;15317;50.360;8.726;2023-08-31T07:36:11;3.13;;;2.27;;
27983;SDS011;15317;50.360;8.726;2023-08-31T07:41:14;3.77;;;2.30;;
27983;SDS011;15317;50.360;8.726;2023-08-31T07:46:19;3.10;;;2.33;;
27983;SDS011;15317;50.360;8.726;2023-08-31T07:51:22;4.17;;;2.30;;
27983;SDS011;15317;50.360;8.726;2023-08-31T07:56:27;3.50;;;1.83;;
27983;SDS011;15317;50.360;8.726;2023-08-31T08:01:32;2.57;;;1.77;;
27983;SDS011;15317;50.360;8.726;2023-08-31T08:06:36;2.67;;;1.90;;
27983;SDS011;15317;50.360;8.726;2023-08-31T08:11:39;2.83;;;1.98;;
27983;SDS011;15317;50.360;8.726;2023-08-31T08:16:45;4.80;;;1.67;;
27983;SDS011;15317;50.360;8.726;2023-08-31T08:21:48;4.22;;;1.80;;
27983;SDS011;15317;50.360;8.726;2023-08-31T08:26:52;3.00;;;1.73;;
27983;SDS011;15317;50.360;8.726;2023-08-31T08:31:56;4.32;;;2.20;;
27983;SDS011;15317;50.360;8.726;2023-08-31T08:36:59;3.57;;;2.03;;
27983;SDS011;15317;50.360;8.726;2023-08-31T08:42:03;2.87;;;1.73;;
27983;SDS011;15317;50.360;8.726;2023-08-31T08:47:09;3.20;;;1.93;;
27983;SDS011;15317;50.360;8.726;2023-08-31T08:52:14;2.87;;;2.07;;
27983;SDS011;15317;50.360;8.726;2023-08-31T08:57:18;2.53;;;1.60;;
27983;SDS011;15317;50.360;8.726;2023-08-31T09:02:22;4.60;;;1.87;;
27983;SDS011;15317;50.360;8.726;2023-08-31T09:07:27;2.27;;;2.07;;
27983;SDS011;15317;50.360;8.726;2023-08-31T09:12:35;4.23;;;1.83;;
27983;SDS011;15317;50.360;8.726;2023-08-31T09:17:40;2.73;;;1.73;;
27983;SDS011;15317;50.360;8.726;2023-08-31T09:22:46;3.10;;;1.87;;
27983;SDS011;15317;50.360;8.726;2023-08-31T09:27:53;3.63;;;1.80;;
27983;SDS011;15317;50.360;8.726;2023-08-31T09:32:58;3.37;;;2.10;;
27983;SDS011;15317;50.360;8.726;2023-08-31T09:38:01;2.53;;;1.80;;
27983;SDS011;15317;50.360;8.726;2023-08-31T09:43:04;3.27;;;1.90;;
27983;SDS011;15317;50.360;8.726;2023-08-31T09:48:09;2.67;;;1.80;;
27983;SDS011;15317;50.360;8.726;2023-08-31T09:53:12;2.33;;;1.50;;
27983;SDS011;15317;50.360;8.726;2023-08-31T09:58:20;2.97;;;1.80;;
27983;SDS011;15317;50.360;8.726;2023-08-31T10:03:25;2.43;;;1.70;;
27983;SDS011;15317;50.360;8.726;2023-08-31T10:08:29;2.40;;;1.70;;
27983;SDS011;15317;50.360;8.726;2023-08-31T10:13:33;2.80;;;1.60;;
27983;SDS011;15317;50.360;8.726;2023-08-31T10:18:41;2.03;;;1.50;;
27983;SDS011;15317;50.360;8.726;2023-08-31T10:23:44;3.85;;;1.50;;
27983;SDS011;15317;50.360;8.726;2023-08-31T10:28:47;2.60;;;1.50;;
27983;SDS011;15317;50.360;8.726;2023-08-31T10:33:58;2.67;;;1.70;;
27983;SDS011;15317;50.360;8.726;2023-08-31T10:39:06;2.95;;;1.80;;
27983;SDS011;15317;50.360;8.726;2023-08-31T10:44:18;2.22;;;1.58;;
27983;SDS011;15317;50.360;8.726;2023-08-31T10:49:24;3.13;;;1.73;;
27983;SDS011;15317;50.360;8.726;2023-08-31T10:54:31;5.75;;;2.20;;
27983;SDS011;15317;50.360;8.726;2023-08-31T10:59:49;2.95;;;1.73;;
27983;SDS011;15317;50.360;8.726;2023-08-31T11:04:55;2.20;;;1.50;;
27983;SDS011;15317;50.360;8.726;2023-08-31T11:10:09;4.13;;;2.17;;
27983;SDS011;15317;50.360;8.726;2023-08-31T11:15:15;2.72;;;1.60;;
27983;SDS011;15317;50.360;8.726;2023-08-31T11:20:23;2.08;;;1.52;;
27983;SDS011;15317;50.360;8.726;2023-08-31T11:25:30;1.80;;;1.50;;
27983;SDS011;15317;50.360;8.726;2023-08-31T11:30:34;2.75;;;1.70;;
27983;SDS011;15317;50.360;8.726;2023-08-31T11:35:41;3.17;;;1.70;;
27983;SDS011;15317;50.360;8.726;2023-08-31T11:40:46;3.08;;;1.73;;
27983;SDS011;15317;50.360;8.726;2023-08-31T11:45:53;2.85;;;1.90;;
27983;SDS011;15317;50.360;8.726;2023-08-31T11:50:57;3.30;;;1.85;;
27983;SDS011;15317;50.360;8.726;2023-08-31T11:56:02;2.97;;;1.70;;
27983;SDS011;15317;50.360;8.726;2023-08-31T12:01:05;2.80;;;1.90;;
27983;SDS011;15317;50.360;8.726;2023-08-31T12:06:10;3.30;;;1.88;;
27983;SDS011;15317;50.360;8.726;2023-08-31T12:11:13;3.63;;;1.90;;
27983;SDS011;15317;50.360;8.726;2023-08-31T12:16:17;4.13;;;1.75;;
27983;SDS011;15317;50.360;8.726;2023-08-31T12:21:21;2.35;;;1.48;;
27983;SDS011;15317;50.360;8.726;2023-08-31T12:26:24;3.83;;;1.83;;
27983;SDS011;15317;50.360;8.726;2023-08-31T12:31:28;2.78;;;1.88;;
27983;SDS011;15317;50.360;8.726;2023-08-31T12:36:32;2.30;;;1.40;;
27983;SDS011;15317;50.360;8.726;2023-08-31T12:41:38;4.47;;;1.90;;
27983;SDS011;15317;50.360;8.726;2023-08-31T12:46:42;4.40;;;1.60;;
27983;SDS011;15317;50.360;8.726;2023-08-31T12:51:46;2.03;;;1.52;;
27983;SDS011;15317;50.360;8.726;2023-08-31T12:56:50;1.77;;;1.50;;
27983;SDS011;15317;50.360;8.726;2023-08-31T13:01:53;3.17;;;1.88;;
27983;SDS011;15317;50.360;8.726;2023-08-31T13:06:58;2.50;;;1.60;;
27983;SDS011;15317;50.360;8.726;2023-08-31T13:12:01;3.00;;;1.95;;
27983;SDS011;15317;50.360;8.726;2023-08-31T13:17:05;2.25;;;1.50;;
27983;SDS011;15317;50.360;8.726;2023-08-31T13:22:09;3.10;;;1.95;;
27983;SDS011;15317;50.360;8.726;2023-08-31T13:27:17;2.20;;;1.63;;
27983;SDS011;15317;50.360;8.726;2023-08-31T13:32:20;5.95;;;2.53;;
27983;SDS011;15317;50.360;8.726;2023-08-31T13:37:25;3.40;;;1.65;;
27983;SDS011;15317;50.360;8.726;2023-08-31T13:42:32;3.33;;;1.67;;
27983;SDS011;15317;50.360;8.726;2023-08-31T13:47:37;2.42;;;1.75;;
27983;SDS011;15317;50.360;8.726;2023-08-31T13:52:42;2.78;;;1.85;;
27983;SDS011;15317;50.360;8.726;2023-08-31T13:57:45;3.13;;;1.80;;
27983;SDS011;15317;50.360;8.726;2023-08-31T14:02:49;4.07;;;1.83;;
27983;SDS011;15317;50.360;8.726;2023-08-31T14:07:54;3.40;;;1.77;;
27983;SDS011;15317;50.360;8.726;2023-08-31T14:12:57;2.97;;;2.05;;
27983;SDS011;15317;50.360;8.726;2023-08-31T14:18:00;2.88;;;1.92;;
27983;SDS011;15317;50.360;8.726;2023-08-31T14:23:05;2.47;;;1.98;;
27983;SDS011;15317;50.360;8.726;2023-08-31T14:28:09;2.38;;;1.90;;
27983;SDS011;15317;50.360;8.726;2023-08-31T14:33:12;1.90;;;1.67;;
27983;SDS011;15317;50.360;8.726;2023-08-31T14:38:19;2.47;;;1.90;;
27983;SDS011;15317;50.360;8.726;2023-08-31T14:43:23;2.42;;;1.80;;
27983;SDS011;15317;50.360;8.726;2023-08-31T14:48:26;2.22;;;1.77;;
27983;SDS011;15317;50.360;8.726;2023-08-31T14:53:31;3.38;;;2.00;;
27983;SDS011;15317;50.360;8.726;2023-08-31T14:58:35;2.05;;;1.63;;
27983;SDS011;15317;50.360;8.726;2023-08-31T15:03:38;2.72;;;2.00;;
27983;SDS011;15317;50.360;8.726;2023-08-31T15:08:43;2.10;;;1.90;;
27983;SDS011;15317;50.360;8.726;2023-08-31T15:13:46;3.53;;;2.00;;
27983;SDS011;15317;50.360;8.726;2023-08-31T15:18:49;4.43;;;1.83;;
27983;SDS011;15317;50.360;8.726;2023-08-31T15:23:54;2.72;;;2.10;;
27983;SDS011;15317;50.360;8.726;2023-08-31T15:28:58;2.83;;;2.10;;
27983;SDS011;15317;50.360;8.726;2023-08-31T15:34:01;3.28;;;2.30;;
27983;SDS011;15317;50.360;8.726;2023-08-31T15:39:06;2.67;;;2.05;;
27983;SDS011;15317;50.360;8.726;2023-08-31T15:44:09;3.28;;;2.28;;
27983;SDS011;15317;50.360;8.726;2023-08-31T15:49:13;3.13;;;2.00;;
27983;SDS011;15317;50.360;8.726;2023-08-31T15:54:17;3.13;;;2.10;;
27983;SDS011;15317;50.360;8.726;2023-08-31T15:59:20;4.07;;;2.30;;
27983;SDS011;15317;50.360;8.726;2023-08-31T16:04:24;2.83;;;1.90;;
27983;SDS011;15317;50.360;8.726;2023-08-31T16:09:28;2.30;;;1.97;;
27983;SDS011;15317;50.360;8.726;2023-08-31T16:14:31;4.43;;;2.23;;
27983;SDS011;15317;50.360;8.726;2023-08-31T16:19:35;4.83;;;3.30;;
27983;SDS011;15317;50.360;8.726;2023-08-31T16:24:39;4.80;;;4.37;;
27983;SDS011;15317;50.360;8.726;2023-08-31T16:29:42;3.93;;;3.07;;
27983;SDS011;15317;50.360;8.726;2023-08-31T16:34:51;5.23;;;2.67;;
27983;SDS011;15317;50.360;8.726;2023-08-31T16:39:56;3.00;;;2.17;;
27983;SDS011;15317;50.360;8.726;2023-08-31T16:45:00;3.33;;;2.00;;
27983;SDS011;15317;50.360;8.726;2023-08-31T16:50:03;4.20;;;2.17;;
27983;SDS011;15317;50.360;8.726;2023-08-31T16:55:08;4.40;;;2.40;;
27983;SDS011;15317;50.360;8.726;2023-08-31T17:00:12;4.80;;;2.47;;
27983;SDS011;15317;50.360;8.726;2023-08-31T17:05:16;5.87;;;3.43;;
27983;SDS011;15317;50.360;8.726;2023-08-31T17:10:20;5.13;;;2.90;;
27983;SDS011;15317;50.360;8.726;2023-08-31T17:15:24;5.40;;;2.43;;
27983;SDS011;15317;50.360;8.726;2023-08-31T17:20:27;4.30;;;2.50;;
27983;SDS011;15317;50.360;8.726;2023-08-31T17:25:33;5.20;;;2.87;;
27983;SDS011;15317;50.360;8.726;2023-08-31T17:30:37;3.33;;;2.33;;
27983;SDS011;15317;50.360;8.726;2023-08-31T17:35:42;5.83;;;2.43;;
27983;SDS011;15317;50.360;8.726;2023-08-31T17:40:46;5.43;;;2.80;;
27983;SDS011;15317;50.360;8.726;2023-08-31T17:45:51;3.60;;;2.50;;
27983;SDS011;15317;50.360;8.726;2023-08-31T17:50:54;4.10;;;2.57;;
27983;SDS011;15317;50.360;8.726;2023-08-31T17:55:58;3.67;;;2.20;;
27983;SDS011;15317;50.360;8.726;2023-08-31T18:01:01;2.30;;;2.03;;
27983;SDS011;15317;50.360;8.726;2023-08-31T18:06:06;3.30;;;2.30;;
27983;SDS011;15317;50.360;8.726;2023-08-31T18:11:11;3.90;;;2.00;;
27983;SDS011;15317;50.360;8.726;2023-08-31T18:16:14;3.37;;;2.10;;
27983;SDS011;15317;50.360;8.726;2023-08-31T18:21:18;4.17;;;2.50;;
27983;SDS011;15317;50.360;8.726;2023-08-31T18:26:23;3.20;;;2.60;;
27983;SDS011;15317;50.360;8.726;2023-08-31T18:31:26;3.77;;;2.40;;
27983;SDS011;15317;50.360;8.726;2023-08-31T18:36:29;4.50;;;2.73;;
27983;SDS011;15317;50.360;8.726;2023-08-31T18:41:33;4.93;;;2.50;;
27983;SDS011;15317;50.360;8.726;2023-08-31T18:46:37;5.70;;;3.07;;
27983;SDS011;15317;50.360;8.726;2023-08-31T18:51:40;4.20;;;2.70;;
27983;SDS011;15317;50.360;8.726;2023-08-31T18:56:47;4.90;;;2.60;;
27983;SDS011;15317;50.360;8.726;2023-08-31T19:01:50;5.00;;;2.70;;
27983;SDS011;15317;50.360;8.726;2023-08-31T19:06:53;4.03;;;3.63;;
27983;SDS011;15317;50.360;8.726;2023-08-31T19:11:58;4.70;;;3.70;;
27983;SDS011;15317;50.360;8.726;2023-08-31T19:17:01;5.87;;;3.63;;
27983;SDS011;15317;50.360;8.726;2023-08-31T19:22:04;6.23;;;3.70;;
27983;SDS011;15317;50.360;8.726;2023-08-31T19:27:09;5.30;;;3.30;;
27983;SDS011;15317;50.360;8.726;2023-08-31T19:32:12;5.40;;;3.80;;
27983;SDS011;15317;50.360;8.726;2023-08-31T19:37:15;4.80;;;3.00;;
27983;SDS011;15317;50.360;8.726;2023-08-31T19:42:21;5.00;;;3.07;;
27983;SDS011;15317;50.360;8.726;2023-08-31T19:47:24;4.87;;;3.47;;
27983;SDS011;15317;50.360;8.726;2023-08-31T19:52:27;4.97;;;2.80;;
27983;SDS011;15317;50.360;8.726;2023-08-31T19:57:32;4.83;;;2.60;;
27983;SDS011;15317;50.360;8.726;2023-08-31T20:02:35;6.43;;;2.90;;
27983;SDS011;15317;50.360;8.726;2023-08-31T20:07:38;7.03;;;2.60;;
27983;SDS011;15317;50.360;8.726;2023-08-31T20:12:43;4.30;;;2.57;;
27983;SDS011;15317;50.360;8.726;2023-08-31T20:17:46;5.03;;;3.10;;
27983;SDS011;15317;50.360;8.726;2023-08-31T20:22:49;5.63;;;2.83;;
27983;SDS011;15317;50.360;8.726;2023-08-31T20:27:53;5.70;;;2.83;;
27983;SDS011;15317;50.360;8.726;2023-08-31T20:32:57;6.80;;;3.40;;
27983;SDS011;15317;50.360;8.726;2023-08-31T20:38:00;5.40;;;2.87;;
27983;SDS011;15317;50.360;8.726;2023-08-31T20:43:05;4.63;;;3.53;;
27983;SDS011;15317;50.360;8.726;2023-08-31T20:48:09;4.67;;;3.23;;
27983;SDS011;15317;50.360;8.726;2023-08-31T20:53:13;5.27;;;3.87;;
27983;SDS011;15317;50.360;8.726;2023-08-31T20:58:18;5.63;;;3.40;;
27983;SDS011;15317;50.360;8.726;2023-08-31T21:03:21;4.10;;;3.50;;
27983;SDS011;15317;50.360;8.726;2023-08-31T21:08:24;6.17;;;3.30;;
27983;SDS011;15317;50.360;8.726;2023-08-31T21:13:29;4.03;;;3.37;;
27983;SDS011;15317;50.360;8.726;2023-08-31T21:18:38;5.20;;;3.60;;
27983;SDS011;15317;50.360;8.726;2023-08-31T21:23:41;4.10;;;3.47;;
27983;SDS011;15317;50.360;8.726;2023-08-31T21:28:46;4.80;;;3.50;;
27983;SDS011;15317;50.360;8.726;2023-08-31T21:33:49;6.87;;;3.70;;
27983;SDS011;15317;50.360;8.726;2023-08-31T21:38:53;6.20;;;3.77;;
27983;SDS011;15317;50.360;8.726;2023-08-31T21:43:57;5.73;;;3.63;;
27983;SDS011;15317;50.360;8.726;2023-08-31T21:49:01;5.80;;;3.70;;
27983;SDS011;15317;50.360;8.726;2023-08-31T21:54:05;6.60;;;3.97;;
27983;SDS011;15317;50.360;8.726;2023-08-31T21:59:10;6.77;;;4.07;;
27983;SDS011;15317;50.360;8.726;2023-08-31T22:04:13;7.40;;;4.43;;
27983;SDS011;15317;50.360;8.726;2023-08-31T22:09:18;6.47;;;4.10;;
27983;SDS011;15317;50.360;8.726;2023-08-31T22:14:23;6.63;;;4.23;;
27983;SDS011;15317;50.360;8.726;2023-08-31T22:19:27;8.70;;;4.07;;
27983;SDS011;15317;50.360;8.726;2023-08-31T22:24:30;6.33;;;4.17;;
27983;SDS011;15317;50.360;8.726;2023-08-31T22:29:35;5.03;;;3.60;;
27983;SDS011;15317;50.360;8.726;2023-08-31T22:34:38;7.33;;;4.00;;
27983;SDS011;15317;50.360;8.726;2023-08-31T22:39:42;4.83;;;3.60;;
27983;SDS011;15317;50.360;8.726;2023-08-31T22:44:46;4.53;;;3.23;;
27983;SDS011;15317;50.360;8.726;2023-08-31T22:49:51;7.07;;;3.93;;
27983;SDS011;15317;50.360;8.726;2023-08-31T22:54:54;6.40;;;3.87;;
27983;SDS011;15317;50.360;8.726;2023-08-31T22:59:59;7.43;;;3.87;;
27983;SDS011;15317;50.360;8.726;2023-08-31T23:05:03;5.30;;;4.30;;
27983;SDS011;15317;50.360;8.726;2023-08-31T23:10:07;6.23;;;4.17;;
27983;SDS011;15317;50.360;8.726;2023-08-31T23:15:24;6.77;;;4.57;;
27983;SDS011;15317;50.360;8.726;2023-08-31T23:20:28;6.53;;;4.93;;
27983;SDS011;15317;50.360;8.726;2023-08-31T23:25:31;7.83;;;5.83;;
27983;SDS011;15317;50.360;8.726;2023-08-31T23:30:37;7.90;;;6.30;;
27983;SDS011;15317;50.360;8.726;2023-08-31T23:35:40;7.30;;;6.50;;
27983;SDS011;15317;50.360;8.726;2023-08-31T23:40:45;7.63;;;6.83;;
27983;SDS011;15317;50.360;8.726;2023-08-31T23:45:49;9.93;;;7.60;;
27983;SDS011;15317;50.360;8.726;2023-08-31T23:50:53;7.77;;;6.50;;
27983;SDS011;15317;50.360;8.726;2023-08-31T23:55:56;9.20;;;7.03;;
